Vision — WDF6306 — position and weather

sailwx.info

Track history (hours):
 
Tides and Currents Weather Stations Pressure Air Temp Water Temp Dewpoint Dewpoint Depression Visibility Wind Speed Wind Dir Waves Ship Positions

Vision

Owner: INTREPID SHIP MANAGEMENT, JACKSONVILLE, FL. More information available from US FCC via Universal Licensing System and Coast Guard Vessel Documentation Center.

Last reported at 2016-Jun-29 08:27 UTC. Time now 2016-Jun-29 09:18 UTC.
Position N 38°02' W 122°08'.

Length 199 m; draft 6.7 m.

Type: Towing. MMSI: 366904000.

Date/timePositionNaut miles runAvg speedWind from/ knotsBaromVisibWave heightAir tempDewpointWater temp
2016-Jun-29 08:27N 38°02' W 122°08'0 0.0
2016-Jun-29 07:33N 38°02' W 122°08'0 0.0
2016-Jun-29 06:15N 38°02' W 122°08'0 0.0
2016-Jun-29 05:33N 38°02' W 122°08'0 0.0
2016-Jun-29 04:33N 38°02' W 122°08'0 0.0
2016-Jun-29 03:33N 38°02' W 122°08'0 0.0
2016-Jun-29 02:33N 38°02' W 122°08'0 0.0
2016-Jun-29 01:33N 38°02' W 122°08'0 0.0
2016-Jun-29 00:27N 38°02' W 122°08'0 0.0
2016-Jun-28 23:33N 38°02' W 122°08'0 0.0
2016-Jun-28 22:21N 38°02' W 122°08'0 0.0
2016-Jun-28 21:33N 38°02' W 122°08'0 0.0
2016-Jun-28 20:27N 38°02' W 122°08'0 0.0
2016-Jun-28 19:33N 38°02' W 122°08'0 0.0
2016-Jun-28 18:33N 38°02' W 122°08'0 0.0
2016-Jun-28 17:27N 38°02' W 122°08'0 0.0
2016-Jun-28 16:33N 38°02' W 122°08'0 0.0
2016-Jun-28 15:33N 38°02' W 122°08'0 0.0
2016-Jun-28 14:33N 38°02' W 122°08'0 0.0
2016-Jun-28 13:33N 38°02' W 122°08'0 0.0
2016-Jun-28 12:27N 38°02' W 122°08'0 0.0
2016-Jun-28 11:33N 38°02' W 122°08'1 0.3
2016-Jun-28 09:33N 38°02' W 122°09'4 3.9
2016-Jun-28 08:33N 38°04' W 122°13'10 9.8
2016-Jun-28 07:33N 38°00' W 122°25'9 9.5
2016-Jun-28 06:33N 37°51' W 122°25'18 9.1
2016-Jun-28 04:33N 37°42' W 122°45'7 7.2
2016-Jun-28 03:33N 37°38' W 122°52'6 6.5
2016-Jun-28 02:33N 37°34' W 122°59'6 5.7
2016-Jun-28 01:33N 37°30' W 123°04'6 5.8
2016-Jun-28 00:33N 37°24' W 123°06'6 5.8
2016-Jun-27 23:33N 37°19' W 123°09'6 6.1
2016-Jun-27 22:33N 37°13' W 123°12'7 7.2
2016-Jun-27 21:33N 37°06' W 123°13'1111.0
2016-Jun-27 20:33N 36°55' W 123°11'1110.6
2016-Jun-27 19:33N 36°45' W 123°08'1010.5
2016-Jun-27 18:33N 36°35' W 123°06'1110.9
2016-Jun-27 17:33N 36°24' W 123°04'1111.2
2016-Jun-27 16:33N 36°13' W 123°02'1110.9
2016-Jun-27 15:33N 36°02' W 123°01'1110.9
2016-Jun-27 14:33N 35°52' W 122°54'1110.9
2016-Jun-27 13:33N 35°43' W 122°48'1111.0
2016-Jun-27 12:33N 35°33' W 122°40'1111.1
2016-Jun-27 11:33N 35°24' W 122°33'1211.7
2016-Jun-27 10:34N 35°14' W 122°25'1211.6
2016-Jun-27 09:33N 35°05' W 122°18'1211.9
2016-Jun-27 08:33N 34°54' W 122°10'1111.5
2016-Jun-27 07:33N 34°45' W 122°03'1110.8
2016-Jun-27 06:33N 34°36' W 121°56'1111.0
2016-Jun-27 05:33N 34°26' W 121°48'1111.0
2016-Jun-27 04:33N 34°18' W 121°40'1110.7
2016-Jun-27 03:33N 34°09' W 121°33'1111.0
2016-Jun-27 02:33N 33°59' W 121°27'1111.0
2016-Jun-27 01:33N 33°50' W 121°19'1010.3
2016-Jun-27 00:33N 33°47' W 121°08'1111.4
2016-Jun-26 23:33N 33°46' W 120°54'1111.2
2016-Jun-26 22:33N 33°46' W 120°40'1111.1
2016-Jun-26 21:33N 33°45' W 120°27'1211.5
2016-Jun-26 20:33N 33°45' W 120°13'1211.8
2016-Jun-26 19:33N 33°44' W 119°59'1212.4
2016-Jun-26 18:33N 33°43' W 119°44'1312.3
2016-Jun-26 17:32N 33°42' W 119°29'1212.2
2016-Jun-26 16:33N 33°42' W 119°15'1212.2
2016-Jun-26 15:33N 33°41' W 118°60'1212.3
2016-Jun-26 14:33N 33°40' W 118°45'1212.4
2016-Jun-26 13:33N 33°40' W 118°31'1211.5
2016-Jun-26 12:32N 33°39' W 118°16'6 6.2
2016-Jun-26 11:33N 33°45' W 118°16'0 0.0
2016-Jun-26 10:33N 33°45' W 118°16'0 0.0
2016-Jun-26 09:33N 33°45' W 118°16'0 0.0
2016-Jun-26 08:33N 33°45' W 118°16'0 0.0
2016-Jun-26 07:33N 33°45' W 118°16'0 0.0
2016-Jun-26 06:33N 33°45' W 118°16'0 0.0
2016-Jun-26 05:33N 33°45' W 118°16'0 0.0
2016-Jun-26 04:33N 33°45' W 118°16'0 0.0
2016-Jun-26 03:33N 33°45' W 118°16'0 0.0
2016-Jun-26 02:33N 33°45' W 118°16'0 0.0
2016-Jun-26 01:33N 33°45' W 118°16'0 0.0
2016-Jun-26 00:33N 33°45' W 118°16'0 0.0
2016-Jun-25 23:33N 33°45' W 118°16'0 0.0
2016-Jun-25 22:33N 33°45' W 118°16'0 0.0
2016-Jun-25 21:33N 33°45' W 118°16'0 0.0
2016-Jun-25 20:30N 33°45' W 118°16'0 0.0
2016-Jun-25 19:33N 33°45' W 118°16'0 0.0
2016-Jun-25 18:33N 33°45' W 118°16'0 0.0
2016-Jun-25 17:33N 33°45' W 118°16'0 0.0
2016-Jun-25 16:33N 33°45' W 118°16'0 0.0
2016-Jun-25 15:33N 33°45' W 118°16'0 0.0
2016-Jun-25 14:33N 33°45' W 118°16'0 0.0
2016-Jun-25 13:33N 33°45' W 118°16'0 0.0
2016-Jun-25 12:33N 33°45' W 118°16'0 0.0
2016-Jun-25 11:33N 33°45' W 118°16'0 0.0
2016-Jun-25 10:33N 33°45' W 118°16'0 0.0
2016-Jun-25 09:33N 33°45' W 118°16'0 0.0
2016-Jun-25 08:33N 33°45' W 118°16'2 2.1
2016-Jun-25 07:33N 33°43' W 118°16'2 2.0
2016-Jun-25 06:33N 33°44' W 118°14'0 0.1
2016-Jun-25 05:33N 33°44' W 118°14'0 0.2
2016-Jun-25 04:33N 33°44' W 118°14'0 0.1
2016-Jun-25 03:33N 33°44' W 118°14'0 0.0
2016-Jun-25 02:33N 33°44' W 118°14'0 0.1
2016-Jun-25 01:33N 33°44' W 118°14'0 0.0
2016-Jun-25 00:33N 33°44' W 118°14'0 0.0
2016-Jun-24 23:33N 33°44' W 118°14'0 0.0
2016-Jun-24 22:33N 33°44' W 118°14'0 0.1
2016-Jun-24 21:33N 33°44' W 118°14'0 0.1
2016-Jun-24 20:33N 33°44' W 118°14'0 0.1
2016-Jun-24 19:33N 33°44' W 118°14'0 0.2
2016-Jun-24 18:33N 33°44' W 118°14'3 2.8
2016-Jun-24 17:33N 33°42' W 118°11'9 8.5
2016-Jun-24 16:33N 33°36' W 118°18'1111.1
2016-Jun-24 15:34N 33°36' W 118°31'10 9.6
2016-Jun-24 14:32N 33°36' W 118°43'9 9.0
2016-Jun-24 13:33N 33°37' W 118°54'9 9.2
2016-Jun-24 12:33N 33°38' W 119°05'9 9.2
2016-Jun-24 11:33N 33°39' W 119°16'42 9.4
2016-Jun-24 07:05N 33°41' W 120°06'23 9.0
2016-Jun-24 04:33N 33°43' W 120°34'9 8.7
2016-Jun-24 03:33N 33°44' W 120°44'9 8.8
2016-Jun-24 02:34N 33°48' W 120°53'10 9.7
2016-Jun-24 01:33N 33°55' W 121°02'10 9.6
2016-Jun-24 00:34N 34°02' W 121°10'10 9.7
2016-Jun-23 23:34N 34°09' W 121°18'10 9.7
2016-Jun-23 22:34N 34°15' W 121°27'9 9.4
2016-Jun-23 21:33N 34°21' W 121°35'9 9.4
2016-Jun-23 20:33N 34°28' W 121°44'10 9.6
2016-Jun-23 19:33N 34°35' W 121°51'8 8.3
2016-Jun-23 18:33N 34°41' W 121°58'9 9.5
2016-Jun-23 17:34N 34°49' W 122°05'10 9.9
2016-Jun-23 16:33N 34°57' W 122°12'1211.7
2016-Jun-23 15:33N 35°06' W 122°20'1212.4
2016-Jun-23 14:34N 35°17' W 122°27'1312.5
2016-Jun-23 13:34N 35°28' W 122°36'1312.5
2016-Jun-23 12:33N 35°39' W 122°44'1312.6
2016-Jun-23 11:34N 35°49' W 122°52'1312.7
2016-Jun-23 10:33N 36°00' W 123°00'1212.5
2016-Jun-23 09:34N 36°12' W 123°06'1211.8
2016-Jun-23 08:33N 36°23' W 123°09'1211.8
2016-Jun-23 07:34N 36°35' W 123°07'2411.8
2016-Jun-23 05:33N 36°58' W 123°04'1212.0
2016-Jun-23 04:34N 37°10' W 123°04'1211.9
2016-Jun-23 03:34N 37°22' W 123°04'1211.7
2016-Jun-23 02:34N 37°34' W 123°04'10 9.7
2016-Jun-23 01:33N 37°39' W 122°54'1111.4
2016-Jun-23 00:33N 37°46' W 122°42'1210.4
2016-Jun-22 23:21N 37°50' W 122°27'7 8.4
2016-Jun-22 22:33N 37°46' W 122°21'1 0.8
2016-Jun-22 21:33N 37°45' W 122°20'0 0.0
2016-Jun-22 20:33N 37°45' W 122°20'0 0.0
2016-Jun-22 19:34N 37°45' W 122°20'0 0.0
2016-Jun-22 18:34N 37°45' W 122°20'0 0.0
2016-Jun-22 17:33N 37°45' W 122°20'5 4.7
2016-Jun-22 16:33N 37°49' W 122°23'1010.1
2016-Jun-22 15:33N 37°59' W 122°26'1111.2
2016-Jun-22 14:33N 38°04' W 122°13'4 4.2
2016-Jun-22 13:34N 38°02' W 122°08'0 0.0
2016-Jun-22 12:30N 38°02' W 122°08'0 0.0
2016-Jun-22 11:24N 38°02' W 122°08'0 0.0
2016-Jun-22 10:24N 38°02' W 122°08'0 0.0
2016-Jun-22 09:30N 38°02' W 122°08'0 0.0
2016-Jun-22 08:30N 38°02' W 122°08'0 0.0
2016-Jun-22 07:30N 38°02' W 122°08'0 0.0
2016-Jun-22 06:30N 38°02' W 122°08'0 0.0
2016-Jun-22 05:30N 38°02' W 122°08'0 0.0
2016-Jun-22 04:30N 38°02' W 122°08'0 0.0
2016-Jun-22 03:30N 38°02' W 122°08'0 0.0
2016-Jun-22 02:18N 38°02' W 122°08'0 0.0
2016-Jun-22 01:30N 38°02' W 122°08'0 0.0
2016-Jun-22 00:30N 38°02' W 122°08'0 0.0
2016-Jun-21 23:30N 38°02' W 122°08'0 0.0
2016-Jun-21 22:30N 38°02' W 122°08'0 0.0
2016-Jun-21 21:30N 38°02' W 122°08'0 0.0
2016-Jun-21 19:30N 38°02' W 122°08'0 0.0
2016-Jun-21 17:12N 38°02' W 122°08'0 0.0
2016-Jun-21 15:30N 38°02' W 122°08'0 0.0
2016-Jun-21 14:30N 38°02' W 122°08'0 0.0
2016-Jun-21 13:30N 38°02' W 122°08'0 0.0
2016-Jun-21 12:30N 38°02' W 122°08'0 0.0
2016-Jun-21 11:24N 38°02' W 122°08'0 0.0
2016-Jun-21 10:30N 38°02' W 122°08'0 0.0
2016-Jun-21 09:30N 38°02' W 122°08'0 0.0
2016-Jun-21 08:30N 38°02' W 122°08'0 0.0
2016-Jun-21 07:30N 38°02' W 122°08'0 0.0
2016-Jun-21 04:30N 38°02' W 122°08'0 0.0
2016-Jun-21 03:30N 38°02' W 122°08'0 0.0
2016-Jun-21 02:24N 38°02' W 122°08'0 0.0
2016-Jun-21 01:24N 38°02' W 122°08'0 0.0
2016-Jun-21 00:30N 38°02' W 122°08'0 0.0
2016-Jun-20 23:24N 38°02' W 122°08'0 0.0
2016-Jun-20 22:30N 38°02' W 122°08'0 0.0
2016-Jun-20 21:30N 38°02' W 122°08'0 0.0
2016-Jun-20 20:30N 38°02' W 122°08'0 0.0
2016-Jun-20 19:30N 38°02' W 122°08'0 0.0
2016-Jun-20 17:18N 38°02' W 122°08'0 0.0
2016-Jun-20 16:30N 38°02' W 122°08'0 0.0
2016-Jun-20 15:24N 38°02' W 122°08'0 0.0
2016-Jun-20 14:24N 38°02' W 122°08'0 0.0
2016-Jun-20 13:30N 38°02' W 122°08'0 0.0
2016-Jun-20 12:24N 38°02' W 122°08'0 0.0
2016-Jun-20 10:18N 38°02' W 122°08'0 0.0
2016-Jun-20 09:30N 38°02' W 122°08'0 0.0
2016-Jun-20 08:18N 38°02' W 122°08'0 0.0
2016-Jun-20 07:30N 38°02' W 122°08'0 0.0
2016-Jun-20 04:24N 38°02' W 122°08'0 0.0
2016-Jun-20 03:30N 38°02' W 122°08'0 0.0
2016-Jun-20 02:30N 38°02' W 122°08'0 0.0
2016-Jun-20 01:30N 38°02' W 122°08'0 0.0
2016-Jun-19 17:12N 38°02' W 122°08'0 0.0
2016-Jun-19 16:30N 38°02' W 122°08'0 0.0
2016-Jun-19 15:30N 38°02' W 122°08'0 0.0
2016-Jun-19 14:30N 38°02' W 122°08'0 0.0
2016-Jun-19 13:30N 38°02' W 122°08'0 0.0
2016-Jun-19 12:24N 38°02' W 122°08'0 0.0
2016-Jun-19 11:33N 38°02' W 122°08'0 0.0
2016-Jun-19 10:33N 38°02' W 122°08'0 0.0
2016-Jun-19 09:33N 38°02' W 122°08'0 0.0
2016-Jun-19 08:33N 38°02' W 122°08'  
Track history (hours):
 
Tides and Currents Weather Stations Pressure Air Temp Water Temp Dewpoint Dewpoint Depression Visibility Wind Speed Wind Dir Waves Ship Positions

Vision

Owner: INTREPID SHIP MANAGEMENT, JACKSONVILLE, FL. More information available from US FCC via Universal Licensing System and Coast Guard Vessel Documentation Center.

Last reported at 2016-Jun-29 08:27 UTC. Time now 2016-Jun-29 09:18 UTC.
Position N 38°02' W 122°08'.

Length 199 m; draft 6.7 m.

Type: Towing. MMSI: 366904000.

Date/timePositionNaut miles runAvg speedWind from/ knotsBaromVisibWave heightAir tempDewpointWater temp
2016-Jun-29 08:27N 38°02' W 122°08'0 0.0
2016-Jun-29 07:33N 38°02' W 122°08'0 0.0
2016-Jun-29 06:15N 38°02' W 122°08'0 0.0
2016-Jun-29 05:33N 38°02' W 122°08'0 0.0
2016-Jun-29 04:33N 38°02' W 122°08'0 0.0
2016-Jun-29 03:33N 38°02' W 122°08'0 0.0
2016-Jun-29 02:33N 38°02' W 122°08'0 0.0
2016-Jun-29 01:33N 38°02' W 122°08'0 0.0
2016-Jun-29 00:27N 38°02' W 122°08'0 0.0
2016-Jun-28 23:33N 38°02' W 122°08'0 0.0
2016-Jun-28 22:21N 38°02' W 122°08'0 0.0
2016-Jun-28 21:33N 38°02' W 122°08'0 0.0
2016-Jun-28 20:27N 38°02' W 122°08'0 0.0
2016-Jun-28 19:33N 38°02' W 122°08'0 0.0
2016-Jun-28 18:33N 38°02' W 122°08'0 0.0
2016-Jun-28 17:27N 38°02' W 122°08'0 0.0
2016-Jun-28 16:33N 38°02' W 122°08'0 0.0
2016-Jun-28 15:33N 38°02' W 122°08'0 0.0
2016-Jun-28 14:33N 38°02' W 122°08'0 0.0
2016-Jun-28 13:33N 38°02' W 122°08'0 0.0
2016-Jun-28 12:27N 38°02' W 122°08'0 0.0
2016-Jun-28 11:33N 38°02' W 122°08'1 0.3
2016-Jun-28 09:33N 38°02' W 122°09'4 3.9
2016-Jun-28 08:33N 38°04' W 122°13'10 9.8
2016-Jun-28 07:33N 38°00' W 122°25'9 9.5
2016-Jun-28 06:33N 37°51' W 122°25'18 9.1
2016-Jun-28 04:33N 37°42' W 122°45'7 7.2
2016-Jun-28 03:33N 37°38' W 122°52'6 6.5
2016-Jun-28 02:33N 37°34' W 122°59'6 5.7
2016-Jun-28 01:33N 37°30' W 123°04'6 5.8
2016-Jun-28 00:33N 37°24' W 123°06'6 5.8
2016-Jun-27 23:33N 37°19' W 123°09'6 6.1
2016-Jun-27 22:33N 37°13' W 123°12'7 7.2
2016-Jun-27 21:33N 37°06' W 123°13'1111.0
2016-Jun-27 20:33N 36°55' W 123°11'1110.6
2016-Jun-27 19:33N 36°45' W 123°08'1010.5
2016-Jun-27 18:33N 36°35' W 123°06'1110.9
2016-Jun-27 17:33N 36°24' W 123°04'1111.2
2016-Jun-27 16:33N 36°13' W 123°02'1110.9
2016-Jun-27 15:33N 36°02' W 123°01'1110.9
2016-Jun-27 14:33N 35°52' W 122°54'1110.9
2016-Jun-27 13:33N 35°43' W 122°48'1111.0
2016-Jun-27 12:33N 35°33' W 122°40'1111.1
2016-Jun-27 11:33N 35°24' W 122°33'1211.7
2016-Jun-27 10:34N 35°14' W 122°25'1211.6
2016-Jun-27 09:33N 35°05' W 122°18'1211.9
2016-Jun-27 08:33N 34°54' W 122°10'1111.5
2016-Jun-27 07:33N 34°45' W 122°03'1110.8
2016-Jun-27 06:33N 34°36' W 121°56'1111.0
2016-Jun-27 05:33N 34°26' W 121°48'1111.0
2016-Jun-27 04:33N 34°18' W 121°40'1110.7
2016-Jun-27 03:33N 34°09' W 121°33'1111.0
2016-Jun-27 02:33N 33°59' W 121°27'1111.0
2016-Jun-27 01:33N 33°50' W 121°19'1010.3
2016-Jun-27 00:33N 33°47' W 121°08'1111.4
2016-Jun-26 23:33N 33°46' W 120°54'1111.2
2016-Jun-26 22:33N 33°46' W 120°40'1111.1
2016-Jun-26 21:33N 33°45' W 120°27'1211.5
2016-Jun-26 20:33N 33°45' W 120°13'1211.8
2016-Jun-26 19:33N 33°44' W 119°59'1212.4
2016-Jun-26 18:33N 33°43' W 119°44'1312.3
2016-Jun-26 17:32N 33°42' W 119°29'1212.2
2016-Jun-26 16:33N 33°42' W 119°15'1212.2
2016-Jun-26 15:33N 33°41' W 118°60'1212.3
2016-Jun-26 14:33N 33°40' W 118°45'1212.4
2016-Jun-26 13:33N 33°40' W 118°31'1211.5
2016-Jun-26 12:32N 33°39' W 118°16'6 6.2
2016-Jun-26 11:33N 33°45' W 118°16'0 0.0
2016-Jun-26 10:33N 33°45' W 118°16'0 0.0
2016-Jun-26 09:33N 33°45' W 118°16'0 0.0
2016-Jun-26 08:33N 33°45' W 118°16'0 0.0
2016-Jun-26 07:33N 33°45' W 118°16'0 0.0
2016-Jun-26 06:33N 33°45' W 118°16'0 0.0
2016-Jun-26 05:33N 33°45' W 118°16'0 0.0
2016-Jun-26 04:33N 33°45' W 118°16'0 0.0
2016-Jun-26 03:33N 33°45' W 118°16'0 0.0
2016-Jun-26 02:33N 33°45' W 118°16'0 0.0
2016-Jun-26 01:33N 33°45' W 118°16'0 0.0
2016-Jun-26 00:33N 33°45' W 118°16'0 0.0
2016-Jun-25 23:33N 33°45' W 118°16'0 0.0
2016-Jun-25 22:33N 33°45' W 118°16'0 0.0
2016-Jun-25 21:33N 33°45' W 118°16'0 0.0
2016-Jun-25 20:30N 33°45' W 118°16'0 0.0
2016-Jun-25 19:33N 33°45' W 118°16'0 0.0
2016-Jun-25 18:33N 33°45' W 118°16'0 0.0
2016-Jun-25 17:33N 33°45' W 118°16'0 0.0
2016-Jun-25 16:33N 33°45' W 118°16'0 0.0
2016-Jun-25 15:33N 33°45' W 118°16'0 0.0
2016-Jun-25 14:33N 33°45' W 118°16'0 0.0
2016-Jun-25 13:33N 33°45' W 118°16'0 0.0
2016-Jun-25 12:33N 33°45' W 118°16'0 0.0
2016-Jun-25 11:33N 33°45' W 118°16'0 0.0
2016-Jun-25 10:33N 33°45' W 118°16'0 0.0
2016-Jun-25 09:33N 33°45' W 118°16'0 0.0
2016-Jun-25 08:33N 33°45' W 118°16'2 2.1
2016-Jun-25 07:33N 33°43' W 118°16'2 2.0
2016-Jun-25 06:33N 33°44' W 118°14'0 0.1
2016-Jun-25 05:33N 33°44' W 118°14'0 0.2
2016-Jun-25 04:33N 33°44' W 118°14'0 0.1
2016-Jun-25 03:33N 33°44' W 118°14'0 0.0
2016-Jun-25 02:33N 33°44' W 118°14'0 0.1
2016-Jun-25 01:33N 33°44' W 118°14'0 0.0
2016-Jun-25 00:33N 33°44' W 118°14'0 0.0
2016-Jun-24 23:33N 33°44' W 118°14'0 0.0
2016-Jun-24 22:33N 33°44' W 118°14'0 0.1
2016-Jun-24 21:33N 33°44' W 118°14'0 0.1
2016-Jun-24 20:33N 33°44' W 118°14'0 0.1
2016-Jun-24 19:33N 33°44' W 118°14'0 0.2
2016-Jun-24 18:33N 33°44' W 118°14'3 2.8
2016-Jun-24 17:33N 33°42' W 118°11'9 8.5
2016-Jun-24 16:33N 33°36' W 118°18'1111.1
2016-Jun-24 15:34N 33°36' W 118°31'10 9.6
2016-Jun-24 14:32N 33°36' W 118°43'9 9.0
2016-Jun-24 13:33N 33°37' W 118°54'9 9.2
2016-Jun-24 12:33N 33°38' W 119°05'9 9.2
2016-Jun-24 11:33N 33°39' W 119°16'42 9.4
2016-Jun-24 07:05N 33°41' W 120°06'23 9.0
2016-Jun-24 04:33N 33°43' W 120°34'9 8.7
2016-Jun-24 03:33N 33°44' W 120°44'9 8.8
2016-Jun-24 02:34N 33°48' W 120°53'10 9.7
2016-Jun-24 01:33N 33°55' W 121°02'10 9.6
2016-Jun-24 00:34N 34°02' W 121°10'10 9.7
2016-Jun-23 23:34N 34°09' W 121°18'10 9.7
2016-Jun-23 22:34N 34°15' W 121°27'9 9.4
2016-Jun-23 21:33N 34°21' W 121°35'9 9.4
2016-Jun-23 20:33N 34°28' W 121°44'10 9.6
2016-Jun-23 19:33N 34°35' W 121°51'8 8.3
2016-Jun-23 18:33N 34°41' W 121°58'9 9.5
2016-Jun-23 17:34N 34°49' W 122°05'10 9.9
2016-Jun-23 16:33N 34°57' W 122°12'1211.7
2016-Jun-23 15:33N 35°06' W 122°20'1212.4
2016-Jun-23 14:34N 35°17' W 122°27'1312.5
2016-Jun-23 13:34N 35°28' W 122°36'1312.5
2016-Jun-23 12:33N 35°39' W 122°44'1312.6
2016-Jun-23 11:34N 35°49' W 122°52'1312.7
2016-Jun-23 10:33N 36°00' W 123°00'1212.5
2016-Jun-23 09:34N 36°12' W 123°06'1211.8
2016-Jun-23 08:33N 36°23' W 123°09'1211.8
2016-Jun-23 07:34N 36°35' W 123°07'2411.8
2016-Jun-23 05:33N 36°58' W 123°04'1212.0
2016-Jun-23 04:34N 37°10' W 123°04'1211.9
2016-Jun-23 03:34N 37°22' W 123°04'1211.7
2016-Jun-23 02:34N 37°34' W 123°04'10 9.7
2016-Jun-23 01:33N 37°39' W 122°54'1111.4
2016-Jun-23 00:33N 37°46' W 122°42'1210.4
2016-Jun-22 23:21N 37°50' W 122°27'7 8.4
2016-Jun-22 22:33N 37°46' W 122°21'1 0.8
2016-Jun-22 21:33N 37°45' W 122°20'0 0.0
2016-Jun-22 20:33N 37°45' W 122°20'0 0.0
2016-Jun-22 19:34N 37°45' W 122°20'0 0.0
2016-Jun-22 18:34N 37°45' W 122°20'0 0.0
2016-Jun-22 17:33N 37°45' W 122°20'5 4.7
2016-Jun-22 16:33N 37°49' W 122°23'1010.1
2016-Jun-22 15:33N 37°59' W 122°26'1111.2
2016-Jun-22 14:33N 38°04' W 122°13'4 4.2
2016-Jun-22 13:34N 38°02' W 122°08'0 0.0
2016-Jun-22 12:30N 38°02' W 122°08'0 0.0
2016-Jun-22 11:24N 38°02' W 122°08'0 0.0
2016-Jun-22 10:24N 38°02' W 122°08'0 0.0
2016-Jun-22 09:30N 38°02' W 122°08'0 0.0
2016-Jun-22 08:30N 38°02' W 122°08'0 0.0
2016-Jun-22 07:30N 38°02' W 122°08'0 0.0
2016-Jun-22 06:30N 38°02' W 122°08'0 0.0
2016-Jun-22 05:30N 38°02' W 122°08'0 0.0
2016-Jun-22 04:30N 38°02' W 122°08'0 0.0
2016-Jun-22 03:30N 38°02' W 122°08'0 0.0
2016-Jun-22 02:18N 38°02' W 122°08'0 0.0
2016-Jun-22 01:30N 38°02' W 122°08'0 0.0
2016-Jun-22 00:30N 38°02' W 122°08'0 0.0
2016-Jun-21 23:30N 38°02' W 122°08'0 0.0
2016-Jun-21 22:30N 38°02' W 122°08'0 0.0
2016-Jun-21 21:30N 38°02' W 122°08'0 0.0
2016-Jun-21 19:30N 38°02' W 122°08'0 0.0
2016-Jun-21 17:12N 38°02' W 122°08'0 0.0
2016-Jun-21 15:30N 38°02' W 122°08'0 0.0
2016-Jun-21 14:30N 38°02' W 122°08'0 0.0
2016-Jun-21 13:30N 38°02' W 122°08'0 0.0
2016-Jun-21 12:30N 38°02' W 122°08'0 0.0
2016-Jun-21 11:24N 38°02' W 122°08'0 0.0
2016-Jun-21 10:30N 38°02' W 122°08'0 0.0
2016-Jun-21 09:30N 38°02' W 122°08'0 0.0
2016-Jun-21 08:30N 38°02' W 122°08'0 0.0
2016-Jun-21 07:30N 38°02' W 122°08'0 0.0
2016-Jun-21 04:30N 38°02' W 122°08'0 0.0
2016-Jun-21 03:30N 38°02' W 122°08'0 0.0
2016-Jun-21 02:24N 38°02' W 122°08'0 0.0
2016-Jun-21 01:24N 38°02' W 122°08'0 0.0
2016-Jun-21 00:30N 38°02' W 122°08'0 0.0
2016-Jun-20 23:24N 38°02' W 122°08'0 0.0
2016-Jun-20 22:30N 38°02' W 122°08'0 0.0
2016-Jun-20 21:30N 38°02' W 122°08'0 0.0
2016-Jun-20 20:30N 38°02' W 122°08'0 0.0
2016-Jun-20 19:30N 38°02' W 122°08'0 0.0
2016-Jun-20 17:18N 38°02' W 122°08'0 0.0
2016-Jun-20 16:30N 38°02' W 122°08'0 0.0
2016-Jun-20 15:24N 38°02' W 122°08'0 0.0
2016-Jun-20 14:24N 38°02' W 122°08'0 0.0
2016-Jun-20 13:30N 38°02' W 122°08'0 0.0
2016-Jun-20 12:24N 38°02' W 122°08'0 0.0
2016-Jun-20 10:18N 38°02' W 122°08'0 0.0
2016-Jun-20 09:30N 38°02' W 122°08'0 0.0
2016-Jun-20 08:18N 38°02' W 122°08'0 0.0
2016-Jun-20 07:30N 38°02' W 122°08'0 0.0
2016-Jun-20 04:24N 38°02' W 122°08'0 0.0
2016-Jun-20 03:30N 38°02' W 122°08'0 0.0
2016-Jun-20 02:30N 38°02' W 122°08'0 0.0
2016-Jun-20 01:30N 38°02' W 122°08'0 0.0
2016-Jun-19 17:12N 38°02' W 122°08'0 0.0
2016-Jun-19 16:30N 38°02' W 122°08'0 0.0
2016-Jun-19 15:30N 38°02' W 122°08'0 0.0
2016-Jun-19 14:30N 38°02' W 122°08'0 0.0
2016-Jun-19 13:30N 38°02' W 122°08'0 0.0
2016-Jun-19 12:24N 38°02' W 122°08'0 0.0
2016-Jun-19 11:33N 38°02' W 122°08'0 0.0
2016-Jun-19 10:33N 38°02' W 122°08'0 0.0
2016-Jun-19 09:33N 38°02' W 122°08'0 0.0
2016-Jun-19 08:33N 38°02' W 122°08'  

Dump ship's entire track history